sensor_id;sensor_type;location;lat;lon;timestamp;P1;durP1;ratioP1;P2;durP2;ratioP2
78895;SDS011;68284;59.124;37.910;2024-02-26T00:02:10;375.77;;;111.80;;
78895;SDS011;68284;59.124;37.910;2024-02-26T00:04:36;376.80;;;114.60;;
78895;SDS011;68284;59.124;37.910;2024-02-26T00:07:04;381.45;;;114.25;;
78895;SDS011;68284;59.124;37.910;2024-02-26T00:09:30;379.95;;;114.80;;
78895;SDS011;68284;59.124;37.910;2024-02-26T00:11:56;387.25;;;112.63;;
78895;SDS011;68284;59.124;37.910;2024-02-26T00:14:25;379.73;;;112.07;;
78895;SDS011;68284;59.124;37.910;2024-02-26T00:19:18;402.55;;;120.57;;
78895;SDS011;68284;59.124;37.910;2024-02-26T00:21:44;399.90;;;119.22;;
78895;SDS011;68284;59.124;37.910;2024-02-26T00:24:11;394.25;;;118.00;;
78895;SDS011;68284;59.124;37.910;2024-02-26T00:26:39;395.38;;;117.80;;
78895;SDS011;68284;59.124;37.910;2024-02-26T00:29:05;396.45;;;117.18;;
78895;SDS011;68284;59.124;37.910;2024-02-26T00:31:32;397.27;;;116.13;;
78895;SDS011;68284;59.124;37.910;2024-02-26T00:33:59;404.02;;;122.00;;
78895;SDS011;68284;59.124;37.910;2024-02-26T00:36:27;397.33;;;115.78;;
78895;SDS011;68284;59.124;37.910;2024-02-26T00:38:53;395.25;;;118.30;;
78895;SDS011;68284;59.124;37.910;2024-02-26T00:43:47;408.52;;;123.70;;
78895;SDS011;68284;59.124;37.910;2024-02-26T00:46:14;407.80;;;117.90;;
78895;SDS011;68284;59.124;37.910;2024-02-26T00:51:07;411.60;;;123.78;;
78895;SDS011;68284;59.124;37.910;2024-02-26T00:53:34;410.05;;;122.03;;
78895;SDS011;68284;59.124;37.910;2024-02-26T00:56:00;404.00;;;122.00;;
78895;SDS011;68284;59.124;37.910;2024-02-26T00:58:27;399.65;;;116.85;;
78895;SDS011;68284;59.124;37.910;2024-02-26T01:00:54;402.60;;;120.15;;
78895;SDS011;68284;59.124;37.910;2024-02-26T01:03:20;292.58;;;99.40;;
78895;SDS011;68284;59.124;37.910;2024-02-26T01:05:48;260.77;;;93.88;;
78895;SDS011;68284;59.124;37.910;2024-02-26T01:08:14;259.83;;;91.80;;
78895;SDS011;68284;59.124;37.910;2024-02-26T01:10:40;298.70;;;97.15;;
78895;SDS011;68284;59.124;37.910;2024-02-26T01:13:07;347.77;;;109.18;;
78895;SDS011;68284;59.124;37.910;2024-02-26T01:15:33;351.52;;;109.32;;
78895;SDS011;68284;59.124;37.910;2024-02-26T01:17:59;438.92;;;126.35;;
78895;SDS011;68284;59.124;37.910;2024-02-26T01:20:26;474.42;;;135.38;;
78895;SDS011;68284;59.124;37.910;2024-02-26T01:22:53;458.98;;;135.77;;
78895;SDS011;68284;59.124;37.910;2024-02-26T01:25:22;515.10;;;145.25;;
78895;SDS011;68284;59.124;37.910;2024-02-26T01:27:48;538.05;;;150.07;;
78895;SDS011;68284;59.124;37.910;2024-02-26T01:30:16;557.05;;;157.60;;
78895;SDS011;68284;59.124;37.910;2024-02-26T01:32:42;598.28;;;168.40;;
78895;SDS011;68284;59.124;37.910;2024-02-26T01:35:10;606.75;;;171.40;;
78895;SDS011;68284;59.124;37.910;2024-02-26T01:37:39;610.72;;;167.32;;
78895;SDS011;68284;59.124;37.910;2024-02-26T01:40:08;559.70;;;155.77;;
78895;SDS011;68284;59.124;37.910;2024-02-26T01:45:05;566.00;;;162.80;;
78895;SDS011;68284;59.124;37.910;2024-02-26T01:47:34;572.60;;;159.07;;
78895;SDS011;68284;59.124;37.910;2024-02-26T01:52:27;575.28;;;161.43;;
78895;SDS011;68284;59.124;37.910;2024-02-26T01:54:54;572.70;;;159.35;;
78895;SDS011;68284;59.124;37.910;2024-02-26T01:57:21;591.45;;;162.77;;
78895;SDS011;68284;59.124;37.910;2024-02-26T01:59:47;611.83;;;170.57;;
78895;SDS011;68284;59.124;37.910;2024-02-26T02:02:14;611.88;;;170.70;;
78895;SDS011;68284;59.124;37.910;2024-02-26T02:04:41;610.15;;;171.38;;
78895;SDS011;68284;59.124;37.910;2024-02-26T02:07:08;573.67;;;162.68;;
78895;SDS011;68284;59.124;37.910;2024-02-26T02:09:34;583.30;;;164.93;;
78895;SDS011;68284;59.124;37.910;2024-02-26T02:12:01;587.78;;;161.95;;
78895;SDS011;68284;59.124;37.910;2024-02-26T02:14:28;587.25;;;163.18;;
78895;SDS011;68284;59.124;37.910;2024-02-26T02:16:54;603.90;;;165.48;;
78895;SDS011;68284;59.124;37.910;2024-02-26T02:19:22;599.38;;;169.07;;
78895;SDS011;68284;59.124;37.910;2024-02-26T02:21:48;611.03;;;172.85;;
78895;SDS011;68284;59.124;37.910;2024-02-26T02:24:14;630.25;;;174.88;;
78895;SDS011;68284;59.124;37.910;2024-02-26T02:26:40;651.65;;;174.77;;
78895;SDS011;68284;59.124;37.910;2024-02-26T02:29:07;670.13;;;186.02;;
78895;SDS011;68284;59.124;37.910;2024-02-26T02:31:35;684.33;;;185.00;;
78895;SDS011;68284;59.124;37.910;2024-02-26T02:34:02;665.28;;;183.52;;
78895;SDS011;68284;59.124;37.910;2024-02-26T02:36:29;687.17;;;188.20;;
78895;SDS011;68284;59.124;37.910;2024-02-26T02:38:55;722.88;;;196.65;;
78895;SDS011;68284;59.124;37.910;2024-02-26T02:41:21;805.17;;;185.52;;
78895;SDS011;68284;59.124;37.910;2024-02-26T02:43:49;649.67;;;176.95;;
78895;SDS011;68284;59.124;37.910;2024-02-26T02:46:15;654.97;;;181.63;;
78895;SDS011;68284;59.124;37.910;2024-02-26T02:48:42;718.50;;;196.95;;
78895;SDS011;68284;59.124;37.910;2024-02-26T02:53:35;867.05;;;196.43;;
78895;SDS011;68284;59.124;37.910;2024-02-26T02:56:02;870.78;;;174.52;;
78895;SDS011;68284;59.124;37.910;2024-02-26T02:58:28;849.55;;;190.95;;
78895;SDS011;68284;59.124;37.910;2024-02-26T03:03:22;647.63;;;180.35;;
78895;SDS011;68284;59.124;37.910;2024-02-26T03:05:50;644.35;;;176.60;;
78895;SDS011;68284;59.124;37.910;2024-02-26T03:08:16;649.30;;;181.18;;
78895;SDS011;68284;59.124;37.910;2024-02-26T03:10:44;645.10;;;179.73;;
78895;SDS011;68284;59.124;37.910;2024-02-26T03:13:12;647.78;;;176.48;;
78895;SDS011;68284;59.124;37.910;2024-02-26T03:15:40;648.05;;;183.43;;
78895;SDS011;68284;59.124;37.910;2024-02-26T03:18:06;656.05;;;177.23;;
78895;SDS011;68284;59.124;37.910;2024-02-26T03:20:33;655.90;;;178.30;;
78895;SDS011;68284;59.124;37.910;2024-02-26T03:23:00;670.70;;;187.20;;
78895;SDS011;68284;59.124;37.910;2024-02-26T03:25:27;693.58;;;190.27;;
78895;SDS011;68284;59.124;37.910;2024-02-26T03:27:54;703.92;;;187.90;;
78895;SDS011;68284;59.124;37.910;2024-02-26T03:30:20;706.83;;;196.98;;
78895;SDS011;68284;59.124;37.910;2024-02-26T03:32:46;703.88;;;191.63;;
78895;SDS011;68284;59.124;37.910;2024-02-26T03:37:43;716.95;;;191.13;;
78895;SDS011;68284;59.124;37.910;2024-02-26T03:40:09;668.28;;;191.85;;
78895;SDS011;68284;59.124;37.910;2024-02-26T03:42:38;644.47;;;180.55;;
78895;SDS011;68284;59.124;37.910;2024-02-26T03:45:05;650.30;;;178.10;;
78895;SDS011;68284;59.124;37.910;2024-02-26T03:47:32;679.35;;;187.48;;
78895;SDS011;68284;59.124;37.910;2024-02-26T03:49:59;695.55;;;191.52;;
78895;SDS011;68284;59.124;37.910;2024-02-26T03:52:26;702.83;;;189.52;;
78895;SDS011;68284;59.124;37.910;2024-02-26T03:54:52;708.60;;;189.60;;
78895;SDS011;68284;59.124;37.910;2024-02-26T03:57:20;703.10;;;193.32;;
78895;SDS011;68284;59.124;37.910;2024-02-26T03:59:47;719.35;;;191.25;;
78895;SDS011;68284;59.124;37.910;2024-02-26T04:02:14;721.53;;;194.65;;
78895;SDS011;68284;59.124;37.910;2024-02-26T04:04:42;734.08;;;196.13;;
78895;SDS011;68284;59.124;37.910;2024-02-26T04:07:09;751.88;;;195.30;;
78895;SDS011;68284;59.124;37.910;2024-02-26T04:09:38;768.95;;;195.73;;
78895;SDS011;68284;59.124;37.910;2024-02-26T04:12:05;785.97;;;195.35;;
78895;SDS011;68284;59.124;37.910;2024-02-26T04:14:32;912.60;;;181.77;;
78895;SDS011;68284;59.124;37.910;2024-02-26T04:16:58;716.22;;;189.55;;
78895;SDS011;68284;59.124;37.910;2024-02-26T04:19:24;787.08;;;175.15;;
78895;SDS011;68284;59.124;37.910;2024-02-26T04:21:53;655.33;;;177.27;;
78895;SDS011;68284;59.124;37.910;2024-02-26T04:24:20;757.83;;;193.43;;
78895;SDS011;68284;59.124;37.910;2024-02-26T04:26:46;958.80;;;249.30;;
78895;SDS011;68284;59.124;37.910;2024-02-26T04:29:15;955.05;;;255.65;;
78895;SDS011;68284;59.124;37.910;2024-02-26T04:31:41;986.38;;;224.07;;
78895;SDS011;68284;59.124;37.910;2024-02-26T04:34:10;1056.50;;;255.00;;
78895;SDS011;68284;59.124;37.910;2024-02-26T04:36:36;1148.85;;;244.60;;
78895;SDS011;68284;59.124;37.910;2024-02-26T04:39:03;838.10;;;203.35;;
78895;SDS011;68284;59.124;37.910;2024-02-26T04:41:31;839.72;;;199.75;;
78895;SDS011;68284;59.124;37.910;2024-02-26T04:43:57;837.75;;;191.07;;
78895;SDS011;68284;59.124;37.910;2024-02-26T04:46:24;841.40;;;187.15;;
78895;SDS011;68284;59.124;37.910;2024-02-26T04:48:51;831.88;;;184.73;;
78895;SDS011;68284;59.124;37.910;2024-02-26T04:51:19;805.45;;;187.95;;
78895;SDS011;68284;59.124;37.910;2024-02-26T04:53:46;821.88;;;184.68;;
78895;SDS011;68284;59.124;37.910;2024-02-26T04:58:40;764.67;;;180.90;;
78895;SDS011;68284;59.124;37.910;2024-02-26T05:01:07;762.80;;;190.07;;
78895;SDS011;68284;59.124;37.910;2024-02-26T05:03:35;786.20;;;188.48;;
78895;SDS011;68284;59.124;37.910;2024-02-26T05:06:02;791.90;;;185.05;;
78895;SDS011;68284;59.124;37.910;2024-02-26T05:08:28;795.40;;;189.20;;
78895;SDS011;68284;59.124;37.910;2024-02-26T05:10:56;828.25;;;178.82;;
78895;SDS011;68284;59.124;37.910;2024-02-26T05:13:22;870.92;;;177.07;;
78895;SDS011;68284;59.124;37.910;2024-02-26T05:15:49;870.67;;;174.32;;
78895;SDS011;68284;59.124;37.910;2024-02-26T05:18:18;859.33;;;170.88;;
78895;SDS011;68284;59.124;37.910;2024-02-26T05:20:44;860.13;;;177.40;;
78895;SDS011;68284;59.124;37.910;2024-02-26T05:23:11;778.17;;;194.70;;
78895;SDS011;68284;59.124;37.910;2024-02-26T05:25:38;768.88;;;189.20;;
78895;SDS011;68284;59.124;37.910;2024-02-26T05:28:05;789.75;;;187.05;;
78895;SDS011;68284;59.124;37.910;2024-02-26T05:30:31;802.88;;;187.57;;
78895;SDS011;68284;59.124;37.910;2024-02-26T05:32:57;793.53;;;192.25;;
78895;SDS011;68284;59.124;37.910;2024-02-26T05:35:24;772.65;;;195.75;;
78895;SDS011;68284;59.124;37.910;2024-02-26T05:37:52;788.15;;;195.05;;
78895;SDS011;68284;59.124;37.910;2024-02-26T05:40:20;781.95;;;189.63;;
78895;SDS011;68284;59.124;37.910;2024-02-26T05:42:46;792.97;;;191.52;;
78895;SDS011;68284;59.124;37.910;2024-02-26T05:45:14;817.78;;;186.98;;
78895;SDS011;68284;59.124;37.910;2024-02-26T05:47:41;807.72;;;183.18;;
78895;SDS011;68284;59.124;37.910;2024-02-26T05:50:13;763.83;;;196.18;;
78895;SDS011;68284;59.124;37.910;2024-02-26T05:52:43;809.65;;;193.85;;
78895;SDS011;68284;59.124;37.910;2024-02-26T05:55:09;809.15;;;188.43;;
78895;SDS011;68284;59.124;37.910;2024-02-26T05:57:36;804.45;;;191.98;;
78895;SDS011;68284;59.124;37.910;2024-02-26T06:00:02;785.25;;;195.38;;
78895;SDS011;68284;59.124;37.910;2024-02-26T06:02:38;778.25;;;196.77;;
78895;SDS011;68284;59.124;37.910;2024-02-26T06:05:04;781.17;;;194.73;;
78895;SDS011;68284;59.124;37.910;2024-02-26T06:07:33;765.17;;;195.82;;
78895;SDS011;68284;59.124;37.910;2024-02-26T06:09:59;762.05;;;197.68;;
78895;SDS011;68284;59.124;37.910;2024-02-26T06:12:25;751.25;;;197.27;;
78895;SDS011;68284;59.124;37.910;2024-02-26T06:14:54;757.07;;;196.17;;
78895;SDS011;68284;59.124;37.910;2024-02-26T06:17:20;755.53;;;197.80;;
78895;SDS011;68284;59.124;37.910;2024-02-26T06:19:47;743.42;;;196.00;;
78895;SDS011;68284;59.124;37.910;2024-02-26T06:22:15;741.55;;;197.45;;
78895;SDS011;68284;59.124;37.910;2024-02-26T06:24:41;744.65;;;195.85;;
78895;SDS011;68284;59.124;37.910;2024-02-26T06:27:08;748.25;;;198.30;;
78895;SDS011;68284;59.124;37.910;2024-02-26T06:29:34;764.33;;;198.80;;
78895;SDS011;68284;59.124;37.910;2024-02-26T06:32:02;745.70;;;193.95;;
78895;SDS011;68284;59.124;37.910;2024-02-26T06:34:29;750.28;;;198.20;;
78895;SDS011;68284;59.124;37.910;2024-02-26T06:36:59;769.83;;;197.57;;
78895;SDS011;68284;59.124;37.910;2024-02-26T06:39:26;777.80;;;194.13;;
78895;SDS011;68284;59.124;37.910;2024-02-26T06:41:52;779.50;;;198.95;;
78895;SDS011;68284;59.124;37.910;2024-02-26T06:44:26;790.20;;;195.27;;
78895;SDS011;68284;59.124;37.910;2024-02-26T06:46:58;789.03;;;192.35;;
78895;SDS011;68284;59.124;37.910;2024-02-26T06:49:25;795.85;;;190.07;;
78895;SDS011;68284;59.124;37.910;2024-02-26T06:51:53;805.13;;;186.88;;
78895;SDS011;68284;59.124;37.910;2024-02-26T06:54:21;808.33;;;187.63;;
78895;SDS011;68284;59.124;37.910;2024-02-26T06:56:47;810.88;;;189.07;;
78895;SDS011;68284;59.124;37.910;2024-02-26T06:59:13;816.97;;;181.38;;
78895;SDS011;68284;59.124;37.910;2024-02-26T07:01:40;815.97;;;186.38;;
78895;SDS011;68284;59.124;37.910;2024-02-26T07:04:11;802.70;;;188.73;;
78895;SDS011;68284;59.124;37.910;2024-02-26T07:06:38;815.75;;;182.63;;
78895;SDS011;68284;59.124;37.910;2024-02-26T07:09:04;823.78;;;185.50;;
78895;SDS011;68284;59.124;37.910;2024-02-26T07:11:30;828.22;;;185.55;;
78895;SDS011;68284;59.124;37.910;2024-02-26T07:13:58;820.92;;;189.90;;
78895;SDS011;68284;59.124;37.910;2024-02-26T07:16:25;824.45;;;183.32;;
78895;SDS011;68284;59.124;37.910;2024-02-26T07:18:52;819.90;;;186.82;;
78895;SDS011;68284;59.124;37.910;2024-02-26T07:21:19;822.22;;;189.10;;
78895;SDS011;68284;59.124;37.910;2024-02-26T07:23:47;779.83;;;192.10;;
78895;SDS011;68284;59.124;37.910;2024-02-26T07:26:14;777.72;;;196.40;;
78895;SDS011;68284;59.124;37.910;2024-02-26T07:28:42;776.17;;;192.82;;
78895;SDS011;68284;59.124;37.910;2024-02-26T07:31:09;784.22;;;194.57;;
78895;SDS011;68284;59.124;37.910;2024-02-26T07:33:35;775.58;;;194.65;;
78895;SDS011;68284;59.124;37.910;2024-02-26T07:36:01;762.95;;;197.63;;
78895;SDS011;68284;59.124;37.910;2024-02-26T07:40:56;761.20;;;187.57;;
78895;SDS011;68284;59.124;37.910;2024-02-26T07:43:23;756.28;;;193.35;;
78895;SDS011;68284;59.124;37.910;2024-02-26T07:45:49;759.70;;;195.88;;
78895;SDS011;68284;59.124;37.910;2024-02-26T07:48:16;755.80;;;197.50;;
78895;SDS011;68284;59.124;37.910;2024-02-26T07:50:44;744.95;;;192.73;;
78895;SDS011;68284;59.124;37.910;2024-02-26T07:53:11;756.25;;;193.13;;
78895;SDS011;68284;59.124;37.910;2024-02-26T07:55:38;756.38;;;193.65;;
78895;SDS011;68284;59.124;37.910;2024-02-26T07:58:17;753.83;;;195.57;;
78895;SDS011;68284;59.124;37.910;2024-02-26T08:00:43;750.60;;;190.35;;
78895;SDS011;68284;59.124;37.910;2024-02-26T08:03:22;754.58;;;191.73;;
78895;SDS011;68284;59.124;37.910;2024-02-26T08:05:51;759.25;;;196.73;;
78895;SDS011;68284;59.124;37.910;2024-02-26T08:08:24;751.80;;;198.40;;
78895;SDS011;68284;59.124;37.910;2024-02-26T08:11:03;749.38;;;194.40;;
78895;SDS011;68284;59.124;37.910;2024-02-26T08:13:42;745.65;;;193.60;;
78895;SDS011;68284;59.124;37.910;2024-02-26T08:16:13;743.03;;;190.73;;
78895;SDS011;68284;59.124;37.910;2024-02-26T08:18:39;739.03;;;196.18;;
78895;SDS011;68284;59.124;37.910;2024-02-26T08:21:06;740.30;;;191.15;;
78895;SDS011;68284;59.124;37.910;2024-02-26T08:23:32;740.08;;;193.55;;
78895;SDS011;68284;59.124;37.910;2024-02-26T08:26:07;740.58;;;196.73;;
78895;SDS011;68284;59.124;37.910;2024-02-26T08:28:43;739.67;;;197.70;;
78895;SDS011;68284;59.124;37.910;2024-02-26T08:35:26;749.13;;;196.60;;
78895;SDS011;68284;59.124;37.910;2024-02-26T08:37:58;743.05;;;195.27;;
78895;SDS011;68284;59.124;37.910;2024-02-26T08:40:25;746.67;;;193.98;;
78895;SDS011;68284;59.124;37.910;2024-02-26T08:42:52;744.65;;;196.63;;
78895;SDS011;68284;59.124;37.910;2024-02-26T08:45:28;739.70;;;194.82;;
78895;SDS011;68284;59.124;37.910;2024-02-26T08:47:58;740.00;;;197.32;;
78895;SDS011;68284;59.124;37.910;2024-02-26T08:50:25;735.93;;;192.70;;
78895;SDS011;68284;59.124;37.910;2024-02-26T08:52:52;732.92;;;195.82;;
78895;SDS011;68284;59.124;37.910;2024-02-26T08:55:19;743.35;;;194.95;;
78895;SDS011;68284;59.124;37.910;2024-02-26T08:57:45;739.05;;;192.95;;
78895;SDS011;68284;59.124;37.910;2024-02-26T09:00:11;731.80;;;194.32;;
78895;SDS011;68284;59.124;37.910;2024-02-26T09:02:38;735.38;;;196.50;;
78895;SDS011;68284;59.124;37.910;2024-02-26T09:05:05;741.15;;;195.98;;
78895;SDS011;68284;59.124;37.910;2024-02-26T09:07:31;737.03;;;199.75;;
78895;SDS011;68284;59.124;37.910;2024-02-26T09:09:58;739.63;;;193.52;;
78895;SDS011;68284;59.124;37.910;2024-02-26T09:12:24;734.92;;;194.98;;
78895;SDS011;68284;59.124;37.910;2024-02-26T09:14:51;734.00;;;192.98;;
78895;SDS011;68284;59.124;37.910;2024-02-26T09:17:18;737.53;;;193.68;;
78895;SDS011;68284;59.124;37.910;2024-02-26T09:19:46;740.33;;;197.68;;
78895;SDS011;68284;59.124;37.910;2024-02-26T09:22:14;739.78;;;198.77;;
78895;SDS011;68284;59.124;37.910;2024-02-26T09:24:40;736.97;;;198.70;;
78895;SDS011;68284;59.124;37.910;2024-02-26T09:27:07;735.42;;;195.10;;
78895;SDS011;68284;59.124;37.910;2024-02-26T09:29:40;747.80;;;198.27;;
78895;SDS011;68284;59.124;37.910;2024-02-26T09:32:07;746.83;;;193.48;;
78895;SDS011;68284;59.124;37.910;2024-02-26T09:34:40;743.05;;;195.07;;
78895;SDS011;68284;59.124;37.910;2024-02-26T09:37:08;745.25;;;193.13;;
78895;SDS011;68284;59.124;37.910;2024-02-26T09:39:37;746.42;;;191.32;;
78895;SDS011;68284;59.124;37.910;2024-02-26T09:42:04;744.83;;;198.10;;
78895;SDS011;68284;59.124;37.910;2024-02-26T09:44:46;728.97;;;192.10;;
78895;SDS011;68284;59.124;37.910;2024-02-26T09:47:23;726.47;;;196.75;;
78895;SDS011;68284;59.124;37.910;2024-02-26T09:49:54;721.20;;;196.10;;
78895;SDS011;68284;59.124;37.910;2024-02-26T09:52:23;715.33;;;195.10;;
78895;SDS011;68284;59.124;37.910;2024-02-26T09:54:51;719.88;;;197.07;;
78895;SDS011;68284;59.124;37.910;2024-02-26T09:57:36;714.47;;;196.88;;
78895;SDS011;68284;59.124;37.910;2024-02-26T10:00:04;711.60;;;191.45;;
78895;SDS011;68284;59.124;37.910;2024-02-26T10:02:57;705.10;;;196.07;;
78895;SDS011;68284;59.124;37.910;2024-02-26T10:05:44;708.42;;;191.88;;
78895;SDS011;68284;59.124;37.910;2024-02-26T10:08:12;704.85;;;194.13;;
78895;SDS011;68284;59.124;37.910;2024-02-26T10:10:48;711.85;;;195.30;;
78895;SDS011;68284;59.124;37.910;2024-02-26T10:13:30;705.30;;;194.27;;
78895;SDS011;68284;59.124;37.910;2024-02-26T10:16:12;701.22;;;192.85;;
78895;SDS011;68284;59.124;37.910;2024-02-26T10:18:48;704.25;;;189.30;;
78895;SDS011;68284;59.124;37.910;2024-02-26T10:21:17;705.50;;;190.32;;
78895;SDS011;68284;59.124;37.910;2024-02-26T10:23:49;703.80;;;192.82;;
78895;SDS011;68284;59.124;37.910;2024-02-26T10:26:21;699.90;;;192.70;;
78895;SDS011;68284;59.124;37.910;2024-02-26T10:28:49;707.88;;;195.10;;
78895;SDS011;68284;59.124;37.910;2024-02-26T10:31:16;705.33;;;190.00;;
78895;SDS011;68284;59.124;37.910;2024-02-26T10:33:55;698.83;;;194.50;;
78895;SDS011;68284;59.124;37.910;2024-02-26T10:36:26;698.95;;;195.32;;
78895;SDS011;68284;59.124;37.910;2024-02-26T10:38:54;702.08;;;197.82;;
78895;SDS011;68284;59.124;37.910;2024-02-26T10:41:24;701.10;;;193.60;;
78895;SDS011;68284;59.124;37.910;2024-02-26T10:43:55;700.70;;;195.65;;
78895;SDS011;68284;59.124;37.910;2024-02-26T10:46:29;708.38;;;191.55;;
78895;SDS011;68284;59.124;37.910;2024-02-26T10:49:03;699.63;;;196.07;;
78895;SDS011;68284;59.124;37.910;2024-02-26T10:51:34;693.45;;;192.55;;
78895;SDS011;68284;59.124;37.910;2024-02-26T10:54:06;702.80;;;191.35;;
78895;SDS011;68284;59.124;37.910;2024-02-26T10:56:35;705.30;;;189.40;;
78895;SDS011;68284;59.124;37.910;2024-02-26T10:59:27;703.17;;;189.25;;
78895;SDS011;68284;59.124;37.910;2024-02-26T11:02:10;700.25;;;194.48;;
78895;SDS011;68284;59.124;37.910;2024-02-26T11:04:43;702.05;;;194.65;;
78895;SDS011;68284;59.124;37.910;2024-02-26T11:07:28;701.58;;;194.55;;
78895;SDS011;68284;59.124;37.910;2024-02-26T11:10:04;699.70;;;190.07;;
78895;SDS011;68284;59.124;37.910;2024-02-26T11:12:44;700.17;;;194.48;;
78895;SDS011;68284;59.124;37.910;2024-02-26T11:15:57;705.85;;;189.77;;
78895;SDS011;68284;59.124;37.910;2024-02-26T11:18:51;688.03;;;191.07;;
78895;SDS011;68284;59.124;37.910;2024-02-26T11:28:42;691.22;;;190.13;;
78895;SDS011;68284;59.124;37.910;2024-02-26T11:31:26;678.83;;;186.80;;
78895;SDS011;68284;59.124;37.910;2024-02-26T11:42:24;667.42;;;185.55;;
78895;SDS011;68284;59.124;37.910;2024-02-26T12:06:30;650.38;;;186.18;;
78895;SDS011;68284;59.124;37.910;2024-02-26T12:08:58;655.05;;;186.70;;
78895;SDS011;68284;59.124;37.910;2024-02-26T12:11:28;649.00;;;178.65;;
78895;SDS011;68284;59.124;37.910;2024-02-26T12:14:00;654.72;;;179.13;;
78895;SDS011;68284;59.124;37.910;2024-02-26T12:16:38;654.70;;;183.07;;
78895;SDS011;68284;59.124;37.910;2024-02-26T12:19:07;660.67;;;181.88;;
78895;SDS011;68284;59.124;37.910;2024-02-26T12:21:52;655.55;;;179.80;;
78895;SDS011;68284;59.124;37.910;2024-02-26T12:25:19;652.30;;;180.23;;
78895;SDS011;68284;59.124;37.910;2024-02-26T12:28:09;647.83;;;184.65;;
78895;SDS011;68284;59.124;37.910;2024-02-26T12:30:56;650.33;;;182.27;;
78895;SDS011;68284;59.124;37.910;2024-02-26T12:33:34;652.20;;;186.85;;
78895;SDS011;68284;59.124;37.910;2024-02-26T12:36:30;645.17;;;183.57;;
78895;SDS011;68284;59.124;37.910;2024-02-26T12:39:45;642.70;;;183.25;;
78895;SDS011;68284;59.124;37.910;2024-02-26T12:42:24;641.13;;;176.52;;
78895;SDS011;68284;59.124;37.910;2024-02-26T12:45:08;650.35;;;180.60;;
78895;SDS011;68284;59.124;37.910;2024-02-26T12:47:44;639.90;;;176.38;;
78895;SDS011;68284;59.124;37.910;2024-02-26T12:51:15;648.17;;;179.93;;
78895;SDS011;68284;59.124;37.910;2024-02-26T12:54:00;643.47;;;179.93;;
78895;SDS011;68284;59.124;37.910;2024-02-26T13:01:08;642.72;;;179.35;;
78895;SDS011;68284;59.124;37.910;2024-02-26T13:04:17;641.25;;;178.25;;
78895;SDS011;68284;59.124;37.910;2024-02-26T13:07:46;642.35;;;178.00;;
78895;SDS011;68284;59.124;37.910;2024-02-26T13:11:51;639.40;;;178.43;;
78895;SDS011;68284;59.124;37.910;2024-02-26T13:14:28;636.30;;;177.55;;
78895;SDS011;68284;59.124;37.910;2024-02-26T13:17:09;634.13;;;181.88;;
78895;SDS011;68284;59.124;37.910;2024-02-26T13:19:48;636.38;;;181.90;;
78895;SDS011;68284;59.124;37.910;2024-02-26T13:22:27;647.60;;;185.18;;
78895;SDS011;68284;59.124;37.910;2024-02-26T13:25:56;639.70;;;182.85;;
78895;SDS011;68284;59.124;37.910;2024-02-26T13:28:33;637.88;;;178.75;;
78895;SDS011;68284;59.124;37.910;2024-02-26T13:31:31;641.88;;;179.10;;
78895;SDS011;68284;59.124;37.910;2024-02-26T13:34:31;642.53;;;178.45;;
78895;SDS011;68284;59.124;37.910;2024-02-26T13:44:14;634.97;;;177.15;;
78895;SDS011;68284;59.124;37.910;2024-02-26T13:46:48;637.53;;;176.05;;
78895;SDS011;68284;59.124;37.910;2024-02-26T13:49:24;638.70;;;183.50;;
78895;SDS011;68284;59.124;37.910;2024-02-26T14:01:23;629.33;;;180.93;;
78895;SDS011;68284;59.124;37.910;2024-02-26T14:05:18;629.40;;;176.57;;
78895;SDS011;68284;59.124;37.910;2024-02-26T14:08:31;636.05;;;177.40;;
78895;SDS011;68284;59.124;37.910;2024-02-26T14:11:56;631.15;;;176.85;;
78895;SDS011;68284;59.124;37.910;2024-02-26T14:14:27;633.03;;;179.40;;
78895;SDS011;68284;59.124;37.910;2024-02-26T14:17:15;626.50;;;177.52;;
78895;SDS011;68284;59.124;37.910;2024-02-26T14:20:40;681.78;;;197.55;;
78895;SDS011;68284;59.124;37.910;2024-02-26T14:42:08;627.33;;;180.15;;
78895;SDS011;68284;59.124;37.910;2024-02-26T14:45:53;633.45;;;178.85;;
78895;SDS011;68284;59.124;37.910;2024-02-26T14:48:36;632.25;;;179.52;;
78895;SDS011;68284;59.124;37.910;2024-02-26T14:51:24;635.20;;;175.52;;
78895;SDS011;68284;59.124;37.910;2024-02-26T14:54:01;629.50;;;179.18;;
78895;SDS011;68284;59.124;37.910;2024-02-26T14:56:50;635.17;;;182.18;;
78895;SDS011;68284;59.124;37.910;2024-02-26T14:59:28;632.40;;;179.73;;
78895;SDS011;68284;59.124;37.910;2024-02-26T15:05:27;640.72;;;180.38;;
78895;SDS011;68284;59.124;37.910;2024-02-26T15:08:11;628.28;;;180.57;;
78895;SDS011;68284;59.124;37.910;2024-02-26T15:11:04;633.67;;;177.15;;
78895;SDS011;68284;59.124;37.910;2024-02-26T15:14:20;629.80;;;182.80;;
78895;SDS011;68284;59.124;37.910;2024-02-26T15:18:21;635.75;;;181.43;;
78895;SDS011;68284;59.124;37.910;2024-02-26T15:21:26;631.15;;;176.43;;
78895;SDS011;68284;59.124;37.910;2024-02-26T15:35:00;638.47;;;184.02;;
78895;SDS011;68284;59.124;37.910;2024-02-26T15:40:24;631.90;;;184.85;;
78895;SDS011;68284;59.124;37.910;2024-02-26T15:43:10;632.00;;;178.77;;
78895;SDS011;68284;59.124;37.910;2024-02-26T15:45:42;634.00;;;181.88;;
78895;SDS011;68284;59.124;37.910;2024-02-26T15:48:42;631.80;;;182.35;;
78895;SDS011;68284;59.124;37.910;2024-02-26T15:51:19;634.33;;;177.75;;
78895;SDS011;68284;59.124;37.910;2024-02-26T15:53:54;626.47;;;178.85;;
78895;SDS011;68284;59.124;37.910;2024-02-26T15:56:49;637.00;;;182.50;;
78895;SDS011;68284;59.124;37.910;2024-02-26T15:59:22;629.08;;;181.35;;
78895;SDS011;68284;59.124;37.910;2024-02-26T16:02:01;634.45;;;179.48;;
78895;SDS011;68284;59.124;37.910;2024-02-26T16:04:31;633.17;;;180.85;;
78895;SDS011;68284;59.124;37.910;2024-02-26T16:07:03;633.55;;;185.75;;
78895;SDS011;68284;59.124;37.910;2024-02-26T16:09:41;628.88;;;180.52;;
78895;SDS011;68284;59.124;37.910;2024-02-26T16:12:20;635.70;;;176.50;;
78895;SDS011;68284;59.124;37.910;2024-02-26T16:14:57;632.13;;;179.95;;
78895;SDS011;68284;59.124;37.910;2024-02-26T16:17:28;635.03;;;178.70;;
78895;SDS011;68284;59.124;37.910;2024-02-26T16:20:01;634.58;;;174.50;;
78895;SDS011;68284;59.124;37.910;2024-02-26T16:22:48;635.13;;;181.05;;